sensor_id;sensor_type;location;lat;lon;timestamp;P1;durP1;ratioP1;P2;durP2;ratioP2
45236;SDS011;30973;51.442;3.580;2023-01-29T00:01:18;12.98;;;9.10;;
45236;SDS011;30973;51.442;3.580;2023-01-29T00:03:45;12.43;;;9.15;;
45236;SDS011;30973;51.442;3.580;2023-01-29T00:06:11;17.35;;;9.15;;
45236;SDS011;30973;51.442;3.580;2023-01-29T00:08:38;17.88;;;10.15;;
45236;SDS011;30973;51.442;3.580;2023-01-29T00:11:05;14.40;;;9.93;;
45236;SDS011;30973;51.442;3.580;2023-01-29T00:13:32;15.15;;;9.65;;
45236;SDS011;30973;51.442;3.580;2023-01-29T00:16:02;14.57;;;9.68;;
45236;SDS011;30973;51.442;3.580;2023-01-29T00:18:29;13.63;;;10.63;;
45236;SDS011;30973;51.442;3.580;2023-01-29T00:20:56;13.40;;;9.73;;
45236;SDS011;30973;51.442;3.580;2023-01-29T00:23:23;13.52;;;10.20;;
45236;SDS011;30973;51.442;3.580;2023-01-29T00:25:50;14.13;;;10.40;;
45236;SDS011;30973;51.442;3.580;2023-01-29T00:28:17;12.65;;;9.55;;
45236;SDS011;30973;51.442;3.580;2023-01-29T00:30:44;14.52;;;10.88;;
45236;SDS011;30973;51.442;3.580;2023-01-29T00:33:10;14.23;;;10.57;;
45236;SDS011;30973;51.442;3.580;2023-01-29T00:35:39;15.45;;;10.35;;
45236;SDS011;30973;51.442;3.580;2023-01-29T00:38:06;14.88;;;10.35;;
45236;SDS011;30973;51.442;3.580;2023-01-29T00:40:36;13.32;;;9.70;;
45236;SDS011;30973;51.442;3.580;2023-01-29T00:43:23;13.35;;;10.18;;
45236;SDS011;30973;51.442;3.580;2023-01-29T00:46:08;15.32;;;10.63;;
45236;SDS011;30973;51.442;3.580;2023-01-29T00:48:35;14.60;;;10.27;;
45236;SDS011;30973;51.442;3.580;2023-01-29T00:51:02;15.98;;;10.52;;
45236;SDS011;30973;51.442;3.580;2023-01-29T00:53:29;14.07;;;9.57;;
45236;SDS011;30973;51.442;3.580;2023-01-29T00:55:55;14.98;;;10.02;;
45236;SDS011;30973;51.442;3.580;2023-01-29T00:58:22;15.90;;;10.32;;
45236;SDS011;30973;51.442;3.580;2023-01-29T01:00:53;16.10;;;9.40;;
45236;SDS011;30973;51.442;3.580;2023-01-29T01:03:21;13.30;;;9.73;;
45236;SDS011;30973;51.442;3.580;2023-01-29T01:05:47;15.30;;;10.27;;
45236;SDS011;30973;51.442;3.580;2023-01-29T01:08:14;16.98;;;10.75;;
45236;SDS011;30973;51.442;3.580;2023-01-29T01:11:01;16.50;;;11.05;;
45236;SDS011;30973;51.442;3.580;2023-01-29T01:13:30;16.58;;;11.20;;
45236;SDS011;30973;51.442;3.580;2023-01-29T01:15:57;15.00;;;10.77;;
45236;SDS011;30973;51.442;3.580;2023-01-29T01:18:24;16.52;;;10.77;;
45236;SDS011;30973;51.442;3.580;2023-01-29T01:20:55;19.00;;;11.70;;
45236;SDS011;30973;51.442;3.580;2023-01-29T01:23:23;16.88;;;10.90;;
45236;SDS011;30973;51.442;3.580;2023-01-29T01:25:50;17.02;;;10.85;;
45236;SDS011;30973;51.442;3.580;2023-01-29T01:28:16;15.85;;;10.93;;
45236;SDS011;30973;51.442;3.580;2023-01-29T01:30:43;15.98;;;11.18;;
45236;SDS011;30973;51.442;3.580;2023-01-29T01:33:10;15.38;;;11.90;;
45236;SDS011;30973;51.442;3.580;2023-01-29T01:35:38;16.00;;;11.50;;
45236;SDS011;30973;51.442;3.580;2023-01-29T01:38:04;17.00;;;11.63;;
45236;SDS011;30973;51.442;3.580;2023-01-29T01:40:31;16.73;;;11.65;;
45236;SDS011;30973;51.442;3.580;2023-01-29T01:42:58;19.48;;;13.00;;
45236;SDS011;30973;51.442;3.580;2023-01-29T01:45:27;17.80;;;12.20;;
45236;SDS011;30973;51.442;3.580;2023-01-29T01:47:56;17.42;;;12.05;;
45236;SDS011;30973;51.442;3.580;2023-01-29T01:52:52;16.67;;;12.25;;
45236;SDS011;30973;51.442;3.580;2023-01-29T01:55:22;19.48;;;12.43;;
45236;SDS011;30973;51.442;3.580;2023-01-29T01:57:50;20.23;;;12.23;;
45236;SDS011;30973;51.442;3.580;2023-01-29T02:00:18;17.08;;;12.65;;
45236;SDS011;30973;51.442;3.580;2023-01-29T02:02:45;19.08;;;12.40;;
45236;SDS011;30973;51.442;3.580;2023-01-29T02:05:31;17.50;;;12.07;;
45236;SDS011;30973;51.442;3.580;2023-01-29T02:08:22;17.80;;;12.88;;
45236;SDS011;30973;51.442;3.580;2023-01-29T02:11:09;16.85;;;12.68;;
45236;SDS011;30973;51.442;3.580;2023-01-29T02:13:36;16.30;;;12.35;;
45236;SDS011;30973;51.442;3.580;2023-01-29T02:16:03;20.00;;;13.43;;
45236;SDS011;30973;51.442;3.580;2023-01-29T02:18:32;20.58;;;13.25;;
45236;SDS011;30973;51.442;3.580;2023-01-29T02:21:07;19.13;;;13.15;;
45236;SDS011;30973;51.442;3.580;2023-01-29T02:26:26;20.30;;;13.18;;
45236;SDS011;30973;51.442;3.580;2023-01-29T02:28:58;20.13;;;13.52;;
45236;SDS011;30973;51.442;3.580;2023-01-29T02:37:19;18.67;;;13.60;;
45236;SDS011;30973;51.442;3.580;2023-01-29T02:39:52;19.85;;;13.05;;
45236;SDS011;30973;51.442;3.580;2023-01-29T02:42:27;18.73;;;12.93;;
45236;SDS011;30973;51.442;3.580;2023-01-29T02:45:01;17.95;;;12.30;;
45236;SDS011;30973;51.442;3.580;2023-01-29T02:47:33;20.02;;;12.90;;
45236;SDS011;30973;51.442;3.580;2023-01-29T02:55:11;16.92;;;11.88;;
45236;SDS011;30973;51.442;3.580;2023-01-29T02:57:39;18.58;;;12.18;;
45236;SDS011;30973;51.442;3.580;2023-01-29T03:02:35;17.83;;;12.45;;
45236;SDS011;30973;51.442;3.580;2023-01-29T03:05:05;17.58;;;12.48;;
45236;SDS011;30973;51.442;3.580;2023-01-29T03:07:34;17.85;;;12.57;;
45236;SDS011;30973;51.442;3.580;2023-01-29T03:10:30;20.98;;;14.82;;
45236;SDS011;30973;51.442;3.580;2023-01-29T03:15:50;17.17;;;13.00;;
45236;SDS011;30973;51.442;3.580;2023-01-29T03:18:43;17.33;;;12.57;;
45236;SDS011;30973;51.442;3.580;2023-01-29T03:21:13;18.30;;;12.88;;
45236;SDS011;30973;51.442;3.580;2023-01-29T03:24:00;18.50;;;12.50;;
45236;SDS011;30973;51.442;3.580;2023-01-29T03:26:48;20.52;;;13.13;;
45236;SDS011;30973;51.442;3.580;2023-01-29T03:29:39;19.98;;;13.70;;
45236;SDS011;30973;51.442;3.580;2023-01-29T03:32:41;19.90;;;12.45;;
45236;SDS011;30973;51.442;3.580;2023-01-29T03:35:08;19.55;;;12.23;;
45236;SDS011;30973;51.442;3.580;2023-01-29T03:37:44;20.73;;;13.65;;
45236;SDS011;30973;51.442;3.580;2023-01-29T03:45:10;22.27;;;13.80;;
45236;SDS011;30973;51.442;3.580;2023-01-29T03:47:47;20.20;;;13.23;;
45236;SDS011;30973;51.442;3.580;2023-01-29T03:55:15;19.95;;;14.20;;
45236;SDS011;30973;51.442;3.580;2023-01-29T03:57:52;21.33;;;14.38;;
45236;SDS011;30973;51.442;3.580;2023-01-29T04:00:28;22.65;;;14.30;;
45236;SDS011;30973;51.442;3.580;2023-01-29T04:03:05;19.10;;;13.23;;
45236;SDS011;30973;51.442;3.580;2023-01-29T04:05:38;21.92;;;14.38;;
45236;SDS011;30973;51.442;3.580;2023-01-29T04:08:13;20.02;;;13.43;;
45236;SDS011;30973;51.442;3.580;2023-01-29T04:10:42;19.27;;;13.60;;
45236;SDS011;30973;51.442;3.580;2023-01-29T04:13:11;22.08;;;14.75;;
45236;SDS011;30973;51.442;3.580;2023-01-29T04:15:49;18.63;;;13.82;;
45236;SDS011;30973;51.442;3.580;2023-01-29T04:18:23;20.65;;;13.73;;
45236;SDS011;30973;51.442;3.580;2023-01-29T04:21:08;20.27;;;14.23;;
45236;SDS011;30973;51.442;3.580;2023-01-29T04:23:35;20.05;;;13.77;;
45236;SDS011;30973;51.442;3.580;2023-01-29T04:28:53;23.00;;;14.32;;
45236;SDS011;30973;51.442;3.580;2023-01-29T04:31:25;18.83;;;13.50;;
45236;SDS011;30973;51.442;3.580;2023-01-29T04:36:41;22.90;;;14.25;;
45236;SDS011;30973;51.442;3.580;2023-01-29T04:39:29;23.15;;;15.57;;
45236;SDS011;30973;51.442;3.580;2023-01-29T04:41:58;19.90;;;14.68;;
45236;SDS011;30973;51.442;3.580;2023-01-29T04:44:41;23.95;;;14.45;;
45236;SDS011;30973;51.442;3.580;2023-01-29T04:47:15;20.15;;;13.82;;
45236;SDS011;30973;51.442;3.580;2023-01-29T04:49:45;22.70;;;14.68;;
45236;SDS011;30973;51.442;3.580;2023-01-29T04:57:33;23.88;;;14.90;;
45236;SDS011;30973;51.442;3.580;2023-01-29T05:02:29;20.50;;;14.27;;
45236;SDS011;30973;51.442;3.580;2023-01-29T05:04:57;21.48;;;15.13;;
45236;SDS011;30973;51.442;3.580;2023-01-29T05:07:24;22.73;;;15.32;;
45236;SDS011;30973;51.442;3.580;2023-01-29T05:09:52;21.55;;;13.82;;
45236;SDS011;30973;51.442;3.580;2023-01-29T05:12:18;22.35;;;14.70;;
45236;SDS011;30973;51.442;3.580;2023-01-29T05:14:45;23.77;;;14.65;;
45236;SDS011;30973;51.442;3.580;2023-01-29T05:17:17;21.50;;;14.38;;
45236;SDS011;30973;51.442;3.580;2023-01-29T05:19:44;19.90;;;13.82;;
45236;SDS011;30973;51.442;3.580;2023-01-29T05:22:12;24.27;;;14.10;;
45236;SDS011;30973;51.442;3.580;2023-01-29T05:24:40;20.75;;;13.82;;
45236;SDS011;30973;51.442;3.580;2023-01-29T05:27:08;23.27;;;14.95;;
45236;SDS011;30973;51.442;3.580;2023-01-29T05:29:59;22.35;;;15.05;;
45236;SDS011;30973;51.442;3.580;2023-01-29T05:32:26;18.52;;;12.93;;
45236;SDS011;30973;51.442;3.580;2023-01-29T05:34:52;21.60;;;13.73;;
45236;SDS011;30973;51.442;3.580;2023-01-29T05:37:19;21.77;;;14.75;;
45236;SDS011;30973;51.442;3.580;2023-01-29T05:39:46;22.23;;;14.15;;
45236;SDS011;30973;51.442;3.580;2023-01-29T05:42:13;22.35;;;14.52;;
45236;SDS011;30973;51.442;3.580;2023-01-29T05:44:39;21.65;;;14.63;;
45236;SDS011;30973;51.442;3.580;2023-01-29T05:47:07;22.90;;;15.20;;
45236;SDS011;30973;51.442;3.580;2023-01-29T05:49:33;21.20;;;14.77;;
45236;SDS011;30973;51.442;3.580;2023-01-29T05:52:03;23.75;;;14.10;;
45236;SDS011;30973;51.442;3.580;2023-01-29T05:54:29;22.42;;;14.68;;
45236;SDS011;30973;51.442;3.580;2023-01-29T05:56:56;19.85;;;14.18;;
45236;SDS011;30973;51.442;3.580;2023-01-29T05:59:23;22.33;;;15.77;;
45236;SDS011;30973;51.442;3.580;2023-01-29T06:01:49;25.50;;;15.45;;
45236;SDS011;30973;51.442;3.580;2023-01-29T06:04:16;22.63;;;15.10;;
45236;SDS011;30973;51.442;3.580;2023-01-29T06:06:43;21.23;;;14.57;;
45236;SDS011;30973;51.442;3.580;2023-01-29T06:09:10;22.20;;;13.98;;
45236;SDS011;30973;51.442;3.580;2023-01-29T06:11:36;20.52;;;14.40;;
45236;SDS011;30973;51.442;3.580;2023-01-29T06:14:03;24.95;;;14.40;;
45236;SDS011;30973;51.442;3.580;2023-01-29T06:16:30;21.05;;;14.23;;
45236;SDS011;30973;51.442;3.580;2023-01-29T06:18:56;22.55;;;14.80;;
45236;SDS011;30973;51.442;3.580;2023-01-29T06:21:23;21.38;;;14.48;;
45236;SDS011;30973;51.442;3.580;2023-01-29T06:23:51;21.95;;;14.57;;
45236;SDS011;30973;51.442;3.580;2023-01-29T06:26:18;20.70;;;14.52;;
45236;SDS011;30973;51.442;3.580;2023-01-29T06:28:47;22.17;;;14.27;;
45236;SDS011;30973;51.442;3.580;2023-01-29T06:31:14;22.70;;;15.40;;
45236;SDS011;30973;51.442;3.580;2023-01-29T06:34:00;25.52;;;15.90;;
45236;SDS011;30973;51.442;3.580;2023-01-29T06:36:27;21.67;;;14.70;;
45236;SDS011;30973;51.442;3.580;2023-01-29T06:38:53;23.48;;;15.02;;
45236;SDS011;30973;51.442;3.580;2023-01-29T06:41:20;20.63;;;14.85;;
45236;SDS011;30973;51.442;3.580;2023-01-29T06:43:51;23.45;;;15.07;;
45236;SDS011;30973;51.442;3.580;2023-01-29T06:46:18;22.45;;;14.52;;
45236;SDS011;30973;51.442;3.580;2023-01-29T06:48:44;21.83;;;15.00;;
45236;SDS011;30973;51.442;3.580;2023-01-29T06:51:11;23.30;;;15.00;;
45236;SDS011;30973;51.442;3.580;2023-01-29T06:53:38;22.77;;;17.00;;
45236;SDS011;30973;51.442;3.580;2023-01-29T06:56:05;20.75;;;14.75;;
45236;SDS011;30973;51.442;3.580;2023-01-29T06:58:32;24.63;;;14.35;;
45236;SDS011;30973;51.442;3.580;2023-01-29T07:01:08;20.85;;;14.18;;
45236;SDS011;30973;51.442;3.580;2023-01-29T07:03:36;21.23;;;14.23;;
45236;SDS011;30973;51.442;3.580;2023-01-29T07:06:03;20.70;;;15.13;;
45236;SDS011;30973;51.442;3.580;2023-01-29T07:08:30;23.98;;;15.23;;
45236;SDS011;30973;51.442;3.580;2023-01-29T07:11:00;21.67;;;14.35;;
45236;SDS011;30973;51.442;3.580;2023-01-29T07:13:27;24.23;;;15.88;;
45236;SDS011;30973;51.442;3.580;2023-01-29T07:15:57;21.80;;;15.40;;
45236;SDS011;30973;51.442;3.580;2023-01-29T07:18:25;23.63;;;15.65;;
45236;SDS011;30973;51.442;3.580;2023-01-29T07:20:52;23.38;;;15.75;;
45236;SDS011;30973;51.442;3.580;2023-01-29T07:23:18;25.85;;;16.00;;
45236;SDS011;30973;51.442;3.580;2023-01-29T07:25:45;21.30;;;15.10;;
45236;SDS011;30973;51.442;3.580;2023-01-29T07:28:12;20.75;;;15.07;;
45236;SDS011;30973;51.442;3.580;2023-01-29T07:30:39;22.60;;;14.77;;
45236;SDS011;30973;51.442;3.580;2023-01-29T07:33:06;20.90;;;14.07;;
45236;SDS011;30973;51.442;3.580;2023-01-29T07:35:40;25.15;;;15.68;;
45236;SDS011;30973;51.442;3.580;2023-01-29T07:38:07;21.20;;;14.32;;
45236;SDS011;30973;51.442;3.580;2023-01-29T07:40:34;22.35;;;14.90;;
45236;SDS011;30973;51.442;3.580;2023-01-29T07:43:02;21.33;;;14.90;;
45236;SDS011;30973;51.442;3.580;2023-01-29T07:45:32;21.60;;;15.52;;
45236;SDS011;30973;51.442;3.580;2023-01-29T07:47:59;22.45;;;14.57;;
45236;SDS011;30973;51.442;3.580;2023-01-29T07:50:25;22.55;;;14.98;;
45236;SDS011;30973;51.442;3.580;2023-01-29T07:52:53;21.20;;;15.38;;
45236;SDS011;30973;51.442;3.580;2023-01-29T07:55:19;28.60;;;14.65;;
45236;SDS011;30973;51.442;3.580;2023-01-29T07:57:53;21.33;;;14.52;;
45236;SDS011;30973;51.442;3.580;2023-01-29T08:00:20;20.98;;;14.13;;
45236;SDS011;30973;51.442;3.580;2023-01-29T08:02:47;19.30;;;14.00;;
45236;SDS011;30973;51.442;3.580;2023-01-29T08:05:14;22.45;;;13.38;;
45236;SDS011;30973;51.442;3.580;2023-01-29T08:07:41;23.15;;;15.38;;
45236;SDS011;30973;51.442;3.580;2023-01-29T08:10:08;21.48;;;14.05;;
45236;SDS011;30973;51.442;3.580;2023-01-29T08:12:34;23.67;;;15.25;;
45236;SDS011;30973;51.442;3.580;2023-01-29T08:15:01;23.23;;;14.75;;
45236;SDS011;30973;51.442;3.580;2023-01-29T08:17:28;22.95;;;15.07;;
45236;SDS011;30973;51.442;3.580;2023-01-29T08:19:54;21.92;;;14.88;;
45236;SDS011;30973;51.442;3.580;2023-01-29T08:22:21;21.50;;;15.27;;
45236;SDS011;30973;51.442;3.580;2023-01-29T08:24:48;22.95;;;14.57;;
45236;SDS011;30973;51.442;3.580;2023-01-29T08:27:25;21.17;;;14.85;;
45236;SDS011;30973;51.442;3.580;2023-01-29T08:29:52;21.70;;;14.30;;
45236;SDS011;30973;51.442;3.580;2023-01-29T08:32:19;20.70;;;15.13;;
45236;SDS011;30973;51.442;3.580;2023-01-29T08:34:45;22.67;;;15.60;;
45236;SDS011;30973;51.442;3.580;2023-01-29T08:37:12;21.65;;;14.50;;
45236;SDS011;30973;51.442;3.580;2023-01-29T08:39:39;20.27;;;14.15;;
45236;SDS011;30973;51.442;3.580;2023-01-29T08:42:10;21.05;;;14.75;;
45236;SDS011;30973;51.442;3.580;2023-01-29T08:44:37;22.15;;;15.02;;
45236;SDS011;30973;51.442;3.580;2023-01-29T08:47:04;19.35;;;14.05;;
45236;SDS011;30973;51.442;3.580;2023-01-29T08:49:31;22.70;;;14.77;;
45236;SDS011;30973;51.442;3.580;2023-01-29T08:51:58;24.13;;;15.52;;
45236;SDS011;30973;51.442;3.580;2023-01-29T08:54:28;23.45;;;14.82;;
45236;SDS011;30973;51.442;3.580;2023-01-29T08:56:54;22.17;;;15.25;;
45236;SDS011;30973;51.442;3.580;2023-01-29T08:59:21;23.33;;;14.88;;
45236;SDS011;30973;51.442;3.580;2023-01-29T09:01:48;21.17;;;14.57;;
45236;SDS011;30973;51.442;3.580;2023-01-29T09:04:15;22.40;;;14.85;;
45236;SDS011;30973;51.442;3.580;2023-01-29T09:06:41;21.42;;;15.20;;
45236;SDS011;30973;51.442;3.580;2023-01-29T09:09:08;19.80;;;14.65;;
45236;SDS011;30973;51.442;3.580;2023-01-29T09:11:34;22.48;;;14.95;;
45236;SDS011;30973;51.442;3.580;2023-01-29T09:14:01;24.38;;;16.10;;
45236;SDS011;30973;51.442;3.580;2023-01-29T09:16:28;25.33;;;15.95;;
45236;SDS011;30973;51.442;3.580;2023-01-29T09:18:55;22.25;;;13.80;;
45236;SDS011;30973;51.442;3.580;2023-01-29T09:21:21;21.67;;;14.80;;
45236;SDS011;30973;51.442;3.580;2023-01-29T09:23:48;21.60;;;15.65;;
45236;SDS011;30973;51.442;3.580;2023-01-29T09:26:15;23.90;;;15.02;;
45236;SDS011;30973;51.442;3.580;2023-01-29T09:28:41;23.38;;;15.23;;
45236;SDS011;30973;51.442;3.580;2023-01-29T09:31:08;21.13;;;15.20;;
45236;SDS011;30973;51.442;3.580;2023-01-29T09:33:35;20.90;;;14.75;;
45236;SDS011;30973;51.442;3.580;2023-01-29T09:36:02;22.42;;;14.70;;
45236;SDS011;30973;51.442;3.580;2023-01-29T09:38:29;23.90;;;16.05;;
45236;SDS011;30973;51.442;3.580;2023-01-29T09:41:05;23.33;;;14.98;;
45236;SDS011;30973;51.442;3.580;2023-01-29T09:46:24;20.63;;;14.52;;
45236;SDS011;30973;51.442;3.580;2023-01-29T09:49:00;21.33;;;14.90;;
45236;SDS011;30973;51.442;3.580;2023-01-29T09:51:33;22.40;;;15.10;;
45236;SDS011;30973;51.442;3.580;2023-01-29T09:56:54;21.45;;;15.70;;
45236;SDS011;30973;51.442;3.580;2023-01-29T09:59:25;21.70;;;15.25;;
45236;SDS011;30973;51.442;3.580;2023-01-29T10:01:58;18.73;;;13.98;;
45236;SDS011;30973;51.442;3.580;2023-01-29T10:09:46;20.58;;;14.65;;
45236;SDS011;30973;51.442;3.580;2023-01-29T10:22:37;20.17;;;14.23;;
45236;SDS011;30973;51.442;3.580;2023-01-29T10:25:05;19.70;;;14.40;;
45236;SDS011;30973;51.442;3.580;2023-01-29T10:27:37;23.55;;;13.95;;
45236;SDS011;30973;51.442;3.580;2023-01-29T10:30:16;19.25;;;13.85;;
45236;SDS011;30973;51.442;3.580;2023-01-29T10:32:43;19.83;;;14.70;;
45236;SDS011;30973;51.442;3.580;2023-01-29T10:35:30;18.77;;;13.05;;
45236;SDS011;30973;51.442;3.580;2023-01-29T10:38:01;17.58;;;12.60;;
45236;SDS011;30973;51.442;3.580;2023-01-29T10:40:40;24.95;;;13.23;;
45236;SDS011;30973;51.442;3.580;2023-01-29T10:43:11;17.70;;;12.20;;
45236;SDS011;30973;51.442;3.580;2023-01-29T10:50:52;18.95;;;13.25;;
45236;SDS011;30973;51.442;3.580;2023-01-29T10:56:16;16.60;;;12.00;;
45236;SDS011;30973;51.442;3.580;2023-01-29T10:59:02;16.17;;;12.45;;
45236;SDS011;30973;51.442;3.580;2023-01-29T11:01:31;17.70;;;12.15;;
45236;SDS011;30973;51.442;3.580;2023-01-29T11:04:01;20.33;;;12.23;;
45236;SDS011;30973;51.442;3.580;2023-01-29T11:06:34;17.20;;;11.95;;
45236;SDS011;30973;51.442;3.580;2023-01-29T11:11:32;17.08;;;12.90;;
45236;SDS011;30973;51.442;3.580;2023-01-29T11:14:04;16.45;;;11.60;;
45236;SDS011;30973;51.442;3.580;2023-01-29T11:16:41;16.00;;;12.43;;
45236;SDS011;30973;51.442;3.580;2023-01-29T11:19:08;15.50;;;10.48;;
45236;SDS011;30973;51.442;3.580;2023-01-29T11:24:20;16.88;;;12.32;;
45236;SDS011;30973;51.442;3.580;2023-01-29T11:26:48;16.33;;;11.48;;
45236;SDS011;30973;51.442;3.580;2023-01-29T11:31:54;16.65;;;11.82;;
45236;SDS011;30973;51.442;3.580;2023-01-29T11:34:22;17.50;;;12.25;;
45236;SDS011;30973;51.442;3.580;2023-01-29T11:36:59;18.00;;;12.30;;
45236;SDS011;30973;51.442;3.580;2023-01-29T11:39:27;16.08;;;10.98;;
45236;SDS011;30973;51.442;3.580;2023-01-29T11:41:57;16.65;;;11.98;;
45236;SDS011;30973;51.442;3.580;2023-01-29T11:44:28;17.13;;;12.07;;
45236;SDS011;30973;51.442;3.580;2023-01-29T11:47:38;17.00;;;11.65;;
45236;SDS011;30973;51.442;3.580;2023-01-29T11:49:49;19.27;;;11.50;;
45236;SDS011;30973;51.442;3.580;2023-01-29T11:52:17;15.18;;;10.82;;
45236;SDS011;30973;51.442;3.580;2023-01-29T11:59:50;16.08;;;10.65;;
45236;SDS011;30973;51.442;3.580;2023-01-29T12:02:20;18.13;;;11.15;;
45236;SDS011;30973;51.442;3.580;2023-01-29T12:04:47;15.50;;;11.15;;
45236;SDS011;30973;51.442;3.580;2023-01-29T12:07:15;17.17;;;10.93;;
45236;SDS011;30973;51.442;3.580;2023-01-29T12:09:51;16.13;;;11.50;;
45236;SDS011;30973;51.442;3.580;2023-01-29T12:14:44;14.60;;;10.82;;
45236;SDS011;30973;51.442;3.580;2023-01-29T12:17:12;16.98;;;11.25;;
45236;SDS011;30973;51.442;3.580;2023-01-29T12:24:43;16.70;;;11.73;;
45236;SDS011;30973;51.442;3.580;2023-01-29T12:29:41;16.25;;;11.13;;
45236;SDS011;30973;51.442;3.580;2023-01-29T12:32:21;15.75;;;11.50;;
45236;SDS011;30973;51.442;3.580;2023-01-29T12:40:17;15.07;;;10.65;;
45236;SDS011;30973;51.442;3.580;2023-01-29T12:42:48;15.05;;;11.18;;
45236;SDS011;30973;51.442;3.580;2023-01-29T12:45:16;14.57;;;10.70;;
45236;SDS011;30973;51.442;3.580;2023-01-29T12:47:46;16.15;;;10.73;;
45236;SDS011;30973;51.442;3.580;2023-01-29T12:50:20;15.35;;;11.68;;
45236;SDS011;30973;51.442;3.580;2023-01-29T12:55:27;18.45;;;11.13;;
45236;SDS011;30973;51.442;3.580;2023-01-29T12:58:01;15.18;;;10.45;;
45236;SDS011;30973;51.442;3.580;2023-01-29T13:06:05;13.50;;;9.90;;
45236;SDS011;30973;51.442;3.580;2023-01-29T13:08:35;15.90;;;10.73;;
45236;SDS011;30973;51.442;3.580;2023-01-29T13:11:07;13.50;;;9.65;;
45236;SDS011;30973;51.442;3.580;2023-01-29T13:13:50;13.55;;;9.90;;
45236;SDS011;30973;51.442;3.580;2023-01-29T13:16:24;15.43;;;9.85;;
45236;SDS011;30973;51.442;3.580;2023-01-29T13:21:19;14.77;;;10.98;;
45236;SDS011;30973;51.442;3.580;2023-01-29T13:23:48;14.40;;;10.48;;
45236;SDS011;30973;51.442;3.580;2023-01-29T13:26:16;14.48;;;10.70;;
45236;SDS011;30973;51.442;3.580;2023-01-29T13:28:44;15.45;;;10.63;;
45236;SDS011;30973;51.442;3.580;2023-01-29T13:36:32;17.35;;;11.55;;
45236;SDS011;30973;51.442;3.580;2023-01-29T13:39:05;15.50;;;10.43;;
45236;SDS011;30973;51.442;3.580;2023-01-29T13:41:33;13.73;;;10.27;;
45236;SDS011;30973;51.442;3.580;2023-01-29T13:44:00;15.38;;;10.70;;
45236;SDS011;30973;51.442;3.580;2023-01-29T13:46:26;15.25;;;10.43;;
45236;SDS011;30973;51.442;3.580;2023-01-29T13:48:55;14.20;;;10.30;;
45236;SDS011;30973;51.442;3.580;2023-01-29T13:51:29;15.05;;;10.68;;
45236;SDS011;30973;51.442;3.580;2023-01-29T13:54:00;17.65;;;10.77;;
45236;SDS011;30973;51.442;3.580;2023-01-29T13:59:05;17.92;;;11.23;;
45236;SDS011;30973;51.442;3.580;2023-01-29T14:04:21;15.55;;;11.27;;
45236;SDS011;30973;51.442;3.580;2023-01-29T14:06:53;17.98;;;11.73;;
45236;SDS011;30973;51.442;3.580;2023-01-29T14:11:58;16.15;;;11.40;;
45236;SDS011;30973;51.442;3.580;2023-01-29T14:19:37;15.20;;;10.52;;
45236;SDS011;30973;51.442;3.580;2023-01-29T14:22:18;16.73;;;10.87;;
45236;SDS011;30973;51.442;3.580;2023-01-29T14:24:46;14.25;;;10.98;;
45236;SDS011;30973;51.442;3.580;2023-01-29T14:27:18;16.33;;;11.60;;
45236;SDS011;30973;51.442;3.580;2023-01-29T14:29:45;15.40;;;11.00;;
45236;SDS011;30973;51.442;3.580;2023-01-29T14:32:21;17.65;;;11.63;;
45236;SDS011;30973;51.442;3.580;2023-01-29T14:37:21;15.35;;;10.55;;
45236;SDS011;30973;51.442;3.580;2023-01-29T14:39:54;17.60;;;11.53;;
45236;SDS011;30973;51.442;3.580;2023-01-29T14:42:26;16.42;;;11.80;;
45236;SDS011;30973;51.442;3.580;2023-01-29T14:44:59;16.90;;;12.25;;
45236;SDS011;30973;51.442;3.580;2023-01-29T14:49:53;19.02;;;11.48;;
45236;SDS011;30973;51.442;3.580;2023-01-29T14:54:59;15.80;;;12.40;;
45236;SDS011;30973;51.442;3.580;2023-01-29T14:57:27;19.95;;;12.00;;
45236;SDS011;30973;51.442;3.580;2023-01-29T15:02:29;19.30;;;12.18;;
45236;SDS011;30973;51.442;3.580;2023-01-29T15:05:03;18.05;;;12.77;;
45236;SDS011;30973;51.442;3.580;2023-01-29T15:07:40;17.13;;;12.25;;
45236;SDS011;30973;51.442;3.580;2023-01-29T15:12:55;18.33;;;13.00;;
45236;SDS011;30973;51.442;3.580;2023-01-29T15:18:00;20.63;;;13.48;;
45236;SDS011;30973;51.442;3.580;2023-01-29T15:20:29;19.67;;;11.70;;
45236;SDS011;30973;51.442;3.580;2023-01-29T15:22:56;18.50;;;12.02;;
45236;SDS011;30973;51.442;3.580;2023-01-29T15:25:24;16.85;;;11.32;;
45236;SDS011;30973;51.442;3.580;2023-01-29T15:27:53;18.10;;;12.50;;
45236;SDS011;30973;51.442;3.580;2023-01-29T15:30:25;16.95;;;12.02;;
45236;SDS011;30973;51.442;3.580;2023-01-29T15:32:54;16.42;;;11.80;;
45236;SDS011;30973;51.442;3.580;2023-01-29T15:35:29;15.90;;;12.45;;
45236;SDS011;30973;51.442;3.580;2023-01-29T15:37:57;17.52;;;12.20;;
45236;SDS011;30973;51.442;3.580;2023-01-29T15:40:24;16.58;;;11.88;;
45236;SDS011;30973;51.442;3.580;2023-01-29T15:42:50;19.55;;;12.48;;
45236;SDS011;30973;51.442;3.580;2023-01-29T15:45:38;17.30;;;12.07;;
45236;SDS011;30973;51.442;3.580;2023-01-29T15:48:06;18.42;;;11.68;;
45236;SDS011;30973;51.442;3.580;2023-01-29T15:50:34;19.33;;;12.35;;
45236;SDS011;30973;51.442;3.580;2023-01-29T15:53:02;18.42;;;12.50;;
45236;SDS011;30973;51.442;3.580;2023-01-29T15:55:31;18.27;;;12.82;;
45236;SDS011;30973;51.442;3.580;2023-01-29T15:57:58;16.90;;;13.10;;
45236;SDS011;30973;51.442;3.580;2023-01-29T16:00:26;21.38;;;12.38;;
45236;SDS011;30973;51.442;3.580;2023-01-29T16:02:54;17.23;;;11.65;;
45236;SDS011;30973;51.442;3.580;2023-01-29T16:05:23;24.52;;;12.07;;
45236;SDS011;30973;51.442;3.580;2023-01-29T16:07:50;24.02;;;13.82;;
45236;SDS011;30973;51.442;3.580;2023-01-29T16:10:19;19.02;;;12.32;;
45236;SDS011;30973;51.442;3.580;2023-01-29T16:12:46;17.98;;;12.50;;
45236;SDS011;30973;51.442;3.580;2023-01-29T16:15:20;16.60;;;11.57;;
45236;SDS011;30973;51.442;3.580;2023-01-29T16:17:47;18.42;;;13.80;;
45236;SDS011;30973;51.442;3.580;2023-01-29T16:23:16;18.00;;;12.32;;
45236;SDS011;30973;51.442;3.580;2023-01-29T16:25:44;18.42;;;12.95;;
45236;SDS011;30973;51.442;3.580;2023-01-29T16:28:10;18.75;;;12.85;;
45236;SDS011;30973;51.442;3.580;2023-01-29T16:30:37;17.15;;;12.90;;
45236;SDS011;30973;51.442;3.580;2023-01-29T16:33:05;18.73;;;13.02;;
45236;SDS011;30973;51.442;3.580;2023-01-29T16:35:33;20.38;;;12.65;;
45236;SDS011;30973;51.442;3.580;2023-01-29T16:38:02;17.92;;;12.60;;
45236;SDS011;30973;51.442;3.580;2023-01-29T16:40:31;18.20;;;13.10;;
45236;SDS011;30973;51.442;3.580;2023-01-29T16:45:34;19.75;;;12.45;;
45236;SDS011;30973;51.442;3.580;2023-01-29T16:48:01;18.98;;;12.40;;
45236;SDS011;30973;51.442;3.580;2023-01-29T16:50:45;18.30;;;12.82;;
45236;SDS011;30973;51.442;3.580;2023-01-29T16:53:20;20.63;;;12.48;;
45236;SDS011;30973;51.442;3.580;2023-01-29T16:55:49;20.25;;;13.73;;
45236;SDS011;30973;51.442;3.580;2023-01-29T16:58:20;20.60;;;13.30;;
45236;SDS011;30973;51.442;3.580;2023-01-29T17:00:48;17.80;;;12.63;;
45236;SDS011;30973;51.442;3.580;2023-01-29T17:03:16;19.77;;;13.02;;
45236;SDS011;30973;51.442;3.580;2023-01-29T17:05:43;21.15;;;13.77;;
45236;SDS011;30973;51.442;3.580;2023-01-29T17:08:14;19.13;;;12.93;;
45236;SDS011;30973;51.442;3.580;2023-01-29T17:10:45;17.73;;;13.25;;